Time;durP1;ratioP1;P1;durP2;ratioP2;P2;SDS_P1;SDS_P2;PMS_P1;PMS_P2;Temp;Humidity;BMP_temperature;BMP_pressure;BME280_temperature;BME280_humidity;BME280_pressure;Samples;Min_cycle;Max_cycle;Signal;HPM_P1;HPM_P2
2021/06/12 00:00:16;;;;;;;8.50;6.13;;;;;;;;;;10323032;28;20080;-58
2021/06/12 00:05:14;;;;;;;8.55;6.35;;;;;;;;;;10322755;28;20053;-56
2021/06/12 00:10:15;;;;;;;8.90;5.43;;;;;;;;;;10322017;28;20052;-58
2021/06/12 00:15:16;;;;;;;10.00;5.97;;;;;;;;;;10322331;28;20519;-59
2021/06/12 00:20:15;;;;;;;10.98;5.82;;;;;;;;;;10321958;28;20087;-58
2021/06/12 00:25:14;;;;;;;8.43;5.45;;;;;;;;;;10321005;28;20111;-59
2021/06/12 00:30:12;;;;;;;9.18;5.57;;;;;;;;;;10321694;28;20536;-58
2021/06/12 00:35:12;;;;;;;17.17;5.32;;;;;;;;;;10321379;28;20100;-58
2021/06/12 00:40:11;;;;;;;6.57;4.97;;;;;;;;;;10320876;28;20091;-56
2021/06/12 00:45:13;;;;;;;13.15;5.05;;;;;;;;;;10320886;28;20084;-58
2021/06/12 00:50:12;;;;;;;8.13;4.90;;;;;;;;;;10320135;28;20053;-56
2021/06/12 00:55:12;;;;;;;6.47;4.82;;;;;;;;;;10319022;28;21103;-59
2021/06/12 01:00:11;;;;;;;13.75;4.93;;;;;;;;;;10320755;28;20087;-58
2021/06/12 01:05:11;;;;;;;7.35;5.00;;;;;;;;;;10319948;28;20083;-56
2021/06/12 01:10:12;;;;;;;11.40;5.07;;;;;;;;;;10319895;28;20045;-56
2021/06/12 01:15:11;;;;;;;11.88;4.97;;;;;;;;;;10319428;28;21136;-57
2021/06/12 01:20:23;;;;;;;11.38;4.60;;;;;;;;;;10319626;28;20087;-59
2021/06/12 01:25:28;;;;;;;9.40;4.63;;;;;;;;;;10306991;28;20510;-58
2021/06/12 01:30:28;;;;;;;13.77;4.97;;;;;;;;;;10318513;28;20075;-54
2021/06/12 01:35:28;;;;;;;13.23;4.68;;;;;;;;;;10319216;28;20051;-57
2021/06/12 01:40:30;;;;;;;9.63;4.80;;;;;;;;;;10318149;28;20497;-58
2021/06/12 01:45:29;;;;;;;7.15;5.03;;;;;;;;;;10319190;28;20056;-58
2021/06/12 01:50:28;;;;;;;9.10;4.35;;;;;;;;;;10318687;28;20051;-58
2021/06/12 01:55:27;;;;;;;11.05;4.65;;;;;;;;;;10318285;28;20051;-58
2021/06/12 02:00:25;;;;;;;11.20;4.47;;;;;;;;;;10316986;28;20052;-58
2021/06/12 02:05:24;;;;;;;9.25;5.55;;;;;;;;;;10318216;28;20079;-56
2021/06/12 02:10:24;;;;;;;9.23;4.30;;;;;;;;;;10317350;28;20391;-58
2021/06/12 02:15:22;;;;;;;11.18;5.18;;;;;;;;;;10317023;28;20095;-58
2021/06/12 02:20:20;;;;;;;12.15;4.80;;;;;;;;;;10317031;28;20607;-58
2021/06/12 02:25:20;;;;;;;7.25;5.20;;;;;;;;;;10317749;28;20075;-53
2021/06/12 02:30:18;;;;;;;9.52;5.32;;;;;;;;;;10317245;28;20512;-58
2021/06/12 02:35:16;;;;;;;8.93;4.78;;;;;;;;;;10316625;28;20048;-58
2021/06/12 02:40:14;;;;;;;9.07;5.20;;;;;;;;;;10316606;28;20076;-58
2021/06/12 02:45:14;;;;;;;8.48;3.92;;;;;;;;;;10315500;28;20087;-57
2021/06/12 02:50:13;;;;;;;11.68;5.13;;;;;;;;;;10316686;28;20084;-58
2021/06/12 02:55:11;;;;;;;10.40;5.07;;;;;;;;;;10316782;28;20398;-57
2021/06/12 03:00:10;;;;;;;6.45;4.93;;;;;;;;;;10316111;28;20084;-58
2021/06/12 03:05:12;;;;;;;6.78;5.43;;;;;;;;;;10316174;28;20082;-58
2021/06/12 03:10:11;;;;;;;7.07;4.78;;;;;;;;;;10316915;28;20048;-57
2021/06/12 03:15:09;;;;;;;13.35;5.32;;;;;;;;;;10314809;28;20088;-58
2021/06/12 03:20:08;;;;;;;9.38;5.07;;;;;;;;;;10316189;28;20111;-57
2021/06/12 03:25:08;;;;;;;9.20;4.47;;;;;;;;;;10315721;28;20048;-56
2021/06/12 03:30:06;;;;;;;14.18;5.63;;;;;;;;;;10316482;28;20056;-58
2021/06/12 03:35:05;;;;;;;9.27;4.57;;;;;;;;;;10315553;28;20063;-58
2021/06/12 03:40:04;;;;;;;9.48;4.50;;;;;;;;;;10315336;28;20080;-56
2021/06/12 03:45:05;;;;;;;8.75;5.10;;;;;;;;;;10298974;28;20049;-56
2021/06/12 03:50:04;;;;;;;6.53;4.75;;;;;;;;;;10304168;28;20072;-57
2021/06/12 03:55:03;;;;;;;6.70;4.63;;;;;;;;;;10296584;28;20095;-57
2021/06/12 04:00:02;;;;;;;7.00;4.43;;;;;;;;;;10306614;28;20083;-57
2021/06/12 04:05:10;;;;;;;7.50;5.13;;;;;;;;;;10311287;28;20052;-56
2021/06/12 04:10:09;;;;;;;5.82;5.13;;;;;;;;;;10295725;28;20072;-57
2021/06/12 04:15:07;;;;;;;6.93;5.03;;;;;;;;;;10294591;28;20065;-56
2021/06/12 04:20:05;;;;;;;8.02;5.05;;;;;;;;;;10297498;28;20052;-56
2021/06/12 04:25:05;;;;;;;11.48;10.38;;;;;;;;;;10310990;28;20049;-58
2021/06/12 04:30:03;;;;;;;8.93;4.43;;;;;;;;;;10307012;28;20080;-55
2021/06/12 04:35:01;;;;;;;10.35;7.90;;;;;;;;;;10307114;28;20080;-56
2021/06/12 04:39:59;;;;;;;12.75;6.25;;;;;;;;;;10299543;28;20049;-52
2021/06/12 04:44:58;;;;;;;6.35;4.70;;;;;;;;;;10314575;28;20087;-47
2021/06/12 04:49:56;;;;;;;7.53;5.18;;;;;;;;;;10314915;28;20551;-52
2021/06/12 04:54:54;;;;;;;5.35;4.85;;;;;;;;;;10317624;28;20076;-55
2021/06/12 04:59:52;;;;;;;6.35;5.50;;;;;;;;;;10318747;28;20049;-58
2021/06/12 05:04:51;;;;;;;6.78;5.65;;;;;;;;;;10317731;28;20071;-53
2021/06/12 05:09:49;;;;;;;7.70;5.55;;;;;;;;;;10318739;28;20045;-56
2021/06/12 05:14:49;;;;;;;23.08;19.60;;;;;;;;;;10318275;28;20052;-55
2021/06/12 05:19:47;;;;;;;11.18;8.95;;;;;;;;;;10318309;28;20060;-53
2021/06/12 05:24:46;;;;;;;5.07;4.57;;;;;;;;;;10317340;28;20095;-54
2021/06/12 05:29:45;;;;;;;9.43;8.25;;;;;;;;;;10317540;28;20051;-51
2021/06/12 05:34:43;;;;;;;12.68;9.93;;;;;;;;;;10316796;28;20581;-53
2021/06/12 05:39:41;;;;;;;17.85;13.82;;;;;;;;;;10317751;28;20079;-57
2021/06/12 05:44:40;;;;;;;12.07;10.25;;;;;;;;;;10317637;28;20076;-55
2021/06/12 05:49:38;;;;;;;10.13;5.43;;;;;;;;;;10315423;28;20055;-57
2021/06/12 05:54:36;;;;;;;8.57;5.45;;;;;;;;;;10315470;28;20044;-58
2021/06/12 05:59:33;;;;;;;7.13;5.43;;;;;;;;;;10317268;28;20090;-57
2021/06/12 06:04:33;;;;;;;5.88;5.35;;;;;;;;;;10316780;28;20079;-53
2021/06/12 06:09:31;;;;;;;8.07;6.13;;;;;;;;;;10313414;28;20087;-56
2021/06/12 06:14:29;;;;;;;9.57;7.18;;;;;;;;;;10312071;28;20114;-57
2021/06/12 06:19:26;;;;;;;16.80;13.00;;;;;;;;;;10312978;28;20453;-57
2021/06/12 06:24:26;;;;;;;10.60;9.23;;;;;;;;;;10312457;28;20530;-57
2021/06/12 06:29:23;;;;;;;8.65;5.68;;;;;;;;;;10316700;28;20037;-58
2021/06/12 06:34:21;;;;;;;8.98;8.05;;;;;;;;;;10314183;28;20060;-57
2021/06/12 06:39:19;;;;;;;6.53;5.93;;;;;;;;;;10315914;28;20037;-57
2021/06/12 06:44:18;;;;;;;6.53;5.13;;;;;;;;;;10315779;28;20493;-57
2021/06/12 06:49:16;;;;;;;6.68;6.00;;;;;;;;;;10315518;28;20048;-57
2021/06/12 06:54:14;;;;;;;6.80;5.00;;;;;;;;;;10315511;28;20091;-58
2021/06/12 06:59:12;;;;;;;10.35;9.18;;;;;;;;;;10314335;28;20524;-58
2021/06/12 07:04:11;;;;;;;7.97;6.47;;;;;;;;;;10315258;28;20076;-57
2021/06/12 07:09:09;;;;;;;10.48;8.48;;;;;;;;;;10315218;28;20064;-52
2021/06/12 07:14:09;;;;;;;9.32;6.65;;;;;;;;;;10314782;28;20045;-54
2021/06/12 07:19:07;;;;;;;7.82;5.90;;;;;;;;;;10315006;28;20045;-55
2021/06/12 07:24:07;;;;;;;10.77;6.05;;;;;;;;;;10314771;28;20084;-57
2021/06/12 07:29:04;;;;;;;7.20;6.50;;;;;;;;;;10320333;28;20040;-58
2021/06/12 07:34:06;;;;;;;10.23;7.35;;;;;;;;;;10322909;28;20512;-59
2021/06/12 07:39:04;;;;;;;8.75;7.75;;;;;;;;;;10322667;28;20405;-59
2021/06/12 07:44:05;;;;;;;8.98;6.80;;;;;;;;;;10322391;28;20075;-58
2021/06/12 07:49:04;;;;;;;7.50;6.53;;;;;;;;;;10321974;28;20178;-59
2021/06/12 07:54:02;;;;;;;15.02;8.00;;;;;;;;;;10322104;28;20063;-59
2021/06/12 07:59:04;;;;;;;7.50;6.07;;;;;;;;;;10321756;28;20047;-58
2021/06/12 08:04:02;;;;;;;7.53;6.82;;;;;;;;;;10320565;28;20110;-58
2021/06/12 08:09:01;;;;;;;9.88;8.88;;;;;;;;;;10321452;28;20099;-59
2021/06/12 08:14:00;;;;;;;7.93;6.82;;;;;;;;;;10321455;28;20044;-58
2021/06/12 08:18:59;;;;;;;8.45;7.70;;;;;;;;;;10319055;28;20056;-58
2021/06/12 08:23:57;;;;;;;10.82;6.63;;;;;;;;;;10320010;28;20528;-59
2021/06/12 08:28:55;;;;;;;7.80;6.68;;;;;;;;;;10320777;28;20055;-59
2021/06/12 08:33:53;;;;;;;8.20;7.25;;;;;;;;;;10320330;28;20080;-56
2021/06/12 08:38:52;;;;;;;8.32;7.63;;;;;;;;;;10319184;28;20071;-55
2021/06/12 08:43:51;;;;;;;11.98;6.70;;;;;;;;;;10319563;28;20505;-56
2021/06/12 08:48:54;;;;;;;10.47;5.73;;;;;;;;;;10320230;28;20079;-54
2021/06/12 08:53:53;;;;;;;6.10;5.50;;;;;;;;;;10319491;28;20330;-55
2021/06/12 08:58:51;;;;;;;6.82;5.03;;;;;;;;;;10319131;28;20072;-57
2021/06/12 09:03:50;;;;;;;5.95;5.40;;;;;;;;;;10319275;28;20083;-52
2021/06/12 09:08:48;;;;;;;7.47;5.43;;;;;;;;;;10318925;28;20079;-55
2021/06/12 09:13:48;;;;;;;8.48;5.50;;;;;;;;;;10318294;28;20551;-53
2021/06/12 09:18:46;;;;;;;5.47;4.45;;;;;;;;;;10319257;28;20493;-55
2021/06/12 09:23:44;;;;;;;5.55;5.05;;;;;;;;;;10318469;28;20087;-56
2021/06/12 09:28:45;;;;;;;5.97;5.28;;;;;;;;;;10317989;28;20090;-56
2021/06/12 09:33:46;;;;;;;7.38;5.35;;;;;;;;;;10317513;28;20088;-55
2021/06/12 09:38:44;;;;;;;6.18;5.68;;;;;;;;;;10317964;28;20048;-51
2021/06/12 09:43:41;;;;;;;6.22;5.63;;;;;;;;;;10316942;28;20177;-57
2021/06/12 09:48:52;;;;;;;8.27;5.28;;;;;;;;;;10316467;28;20051;-52
2021/06/12 09:53:52;;;;;;;6.55;5.95;;;;;;;;;;10317640;28;20079;-55
2021/06/12 09:58:51;;;;;;;5.75;5.25;;;;;;;;;;10316172;28;20056;-55
2021/06/12 10:03:49;;;;;;;7.53;4.68;;;;;;;;;;10315729;28;20106;-52
2021/06/12 10:08:49;;;;;;;6.45;4.85;;;;;;;;;;10317398;28;20517;-53
2021/06/12 10:13:49;;;;;;;4.57;4.18;;;;;;;;;;10316433;28;20443;-56
2021/06/12 10:18:47;;;;;;;5.50;5.00;;;;;;;;;;10316017;28;20153;-55
2021/06/12 10:23:47;;;;;;;10.48;4.53;;;;;;;;;;10316102;28;20083;-57
2021/06/12 10:28:45;;;;;;;4.85;4.15;;;;;;;;;;10315941;28;20055;-55
2021/06/12 10:33:46;;;;;;;4.50;3.80;;;;;;;;;;10315037;28;20094;-55
2021/06/12 10:38:44;;;;;;;4.38;4.00;;;;;;;;;;10311067;28;20080;-57
2021/06/12 10:43:42;;;;;;;5.97;4.20;;;;;;;;;;10314970;28;20076;-55
2021/06/12 10:48:41;;;;;;;4.30;3.90;;;;;;;;;;10315252;28;20095;-55
2021/06/12 10:53:42;;;;;;;5.82;3.80;;;;;;;;;;10295240;28;20041;-56
2021/06/12 10:58:41;;;;;;;4.90;3.38;;;;;;;;;;10293223;28;20072;-56
2021/06/12 11:03:49;;;;;;;5.15;3.28;;;;;;;;;;10291307;28;20464;-55
2021/06/12 11:09:08;;;;;;;5.93;3.88;;;;;;;;;;10292773;28;20079;-55
2021/06/12 11:14:25;;;;;;;3.97;3.00;;;;;;;;;;10287914;28;20079;-60
2021/06/12 11:19:28;;;;;;;3.90;3.60;;;;;;;;;;10292911;28;20048;-55
2021/06/12 11:24:33;;;;;;;2.90;2.70;;;;;;;;;;10292837;28;20477;-56
2021/06/12 11:29:32;;;;;;;3.63;3.33;;;;;;;;;;10294713;28;20069;-57
2021/06/12 11:34:30;;;;;;;5.03;3.38;;;;;;;;;;10290601;28;20072;-55
2021/06/12 11:39:28;;;;;;;3.38;3.13;;;;;;;;;;10292179;28;20048;-57
2021/06/12 11:44:28;;;;;;;3.97;3.17;;;;;;;;;;10292492;28;20505;-56
2021/06/12 11:49:25;;;;;;;4.72;3.53;;;;;;;;;;10291556;28;20618;-57
2021/06/12 11:54:27;;;;;;;4.05;2.80;;;;;;;;;;10294088;28;20073;-57
2021/06/12 11:59:25;;;;;;;3.55;2.70;;;;;;;;;;10281013;28;20514;-53
2021/06/12 12:04:26;;;;;;;5.50;3.03;;;;;;;;;;10292551;28;20073;-53
2021/06/12 12:09:28;;;;;;;6.10;3.40;;;;;;;;;;10290473;28;20048;-50
2021/06/12 12:14:30;;;;;;;5.72;3.17;;;;;;;;;;10297194;28;20060;-57
2021/06/12 12:19:29;;;;;;;3.00;2.70;;;;;;;;;;10321355;28;20052;-55
2021/06/12 12:24:28;;;;;;;3.55;3.25;;;;;;;;;;10321156;28;20072;-52
2021/06/12 12:29:27;;;;;;;3.17;2.88;;;;;;;;;;10320319;28;20426;-54
2021/06/12 12:34:27;;;;;;;5.47;3.22;;;;;;;;;;10319708;28;20496;-57
2021/06/12 12:39:35;;;;;;;4.78;2.80;;;;;;;;;;10320377;28;20059;-55
2021/06/12 12:44:33;;;;;;;7.13;3.20;;;;;;;;;;10319509;28;20076;-55
2021/06/12 12:49:31;;;;;;;7.35;3.45;;;;;;;;;;10319807;28;20044;-54
2021/06/12 12:54:37;;;;;;;9.48;3.50;;;;;;;;;;10318973;28;20040;-55
2021/06/12 12:59:36;;;;;;;2.95;2.65;;;;;;;;;;10315323;28;20076;-56
2021/06/12 13:04:35;;;;;;;2.85;2.65;;;;;;;;;;10317908;28;20099;-59
2021/06/12 13:09:35;;;;;;;2.70;2.50;;;;;;;;;;10319696;28;20080;-59
2021/06/12 13:14:33;;;;;;;3.00;2.80;;;;;;;;;;10317975;28;20090;-58
2021/06/12 13:19:32;;;;;;;5.32;2.92;;;;;;;;;;10318530;28;20064;-59
2021/06/12 13:24:30;;;;;;;3.53;3.22;;;;;;;;;;10316853;28;20076;-59
2021/06/12 13:29:30;;;;;;;3.50;3.20;;;;;;;;;;10318509;28;20040;-58
2021/06/12 13:34:29;;;;;;;3.20;2.92;;;;;;;;;;10317882;28;20048;-59
2021/06/12 13:39:28;;;;;;;8.40;2.60;;;;;;;;;;10317129;28;20041;-58
2021/06/12 13:44:26;;;;;;;5.25;2.50;;;;;;;;;;10317154;28;20088;-58
2021/06/12 13:49:25;;;;;;;3.63;3.33;;;;;;;;;;10317734;28;20055;-58
2021/06/12 13:54:23;;;;;;;5.90;2.67;;;;;;;;;;10317383;28;20083;-58
2021/06/12 13:59:21;;;;;;;4.50;2.55;;;;;;;;;;10317242;28;20356;-59
2021/06/12 14:04:19;;;;;;;2.67;2.47;;;;;;;;;;10316146;28;20111;-58
2021/06/12 14:09:18;;;;;;;5.20;2.55;;;;;;;;;;10316932;28;20049;-59
2021/06/12 14:14:16;;;;;;;6.50;2.78;;;;;;;;;;10316497;28;20466;-58
2021/06/12 14:19:14;;;;;;;5.18;2.50;;;;;;;;;;10309722;28;20320;-59
2021/06/12 14:24:14;;;;;;;4.75;2.42;;;;;;;;;;10301366;28;20076;-58
2021/06/12 14:29:15;;;;;;;3.28;2.97;;;;;;;;;;10290640;28;20505;-58
2021/06/12 14:34:14;;;;;;;5.43;3.67;;;;;;;;;;10289949;28;20072;-59
2021/06/12 14:39:11;;;;;;;3.38;2.85;;;;;;;;;;10288245;28;20087;-56
2021/06/12 14:44:10;;;;;;;4.05;3.20;;;;;;;;;;10281006;28;20140;-58
2021/06/12 14:49:09;;;;;;;2.97;2.63;;;;;;;;;;10303692;28;20536;-58
2021/06/12 14:54:07;;;;;;;4.85;3.90;;;;;;;;;;10273659;28;20076;-57
2021/06/12 14:59:05;;;;;;;5.13;2.72;;;;;;;;;;10276412;28;20068;-57
2021/06/12 15:04:03;;;;;;;4.30;3.90;;;;;;;;;;10304849;28;20068;-57
2021/06/12 15:09:02;;;;;;;10.18;8.65;;;;;;;;;;10296812;28;20064;-57
2021/06/12 15:14:00;;;;;;;10.15;6.40;;;;;;;;;;10300404;28;20080;-58
2021/06/12 15:18:58;;;;;;;10.48;4.07;;;;;;;;;;10294559;28;20122;-57
2021/06/12 15:23:56;;;;;;;7.88;4.55;;;;;;;;;;10316029;28;20520;-55
2021/06/12 15:28:55;;;;;;;10.85;3.22;;;;;;;;;;10285024;28;20065;-58
2021/06/12 15:33:53;;;;;;;5.55;3.38;;;;;;;;;;10304185;28;20069;-58
2021/06/12 15:38:51;;;;;;;10.25;3.28;;;;;;;;;;10302031;28;20064;-56
2021/06/12 15:43:50;;;;;;;3.17;2.75;;;;;;;;;;10291950;28;20144;-57
2021/06/12 15:48:49;;;;;;;10.77;3.78;;;;;;;;;;10307231;28;20076;-54
2021/06/12 15:53:47;;;;;;;21.55;6.65;;;;;;;;;;10304304;28;20071;-56
2021/06/12 15:58:45;;;;;;;32.58;12.60;;;;;;;;;;10297836;28;20057;-58
2021/06/12 16:03:43;;;;;;;19.50;7.07;;;;;;;;;;10298127;28;20576;-58
2021/06/12 16:08:44;;;;;;;10.75;5.95;;;;;;;;;;10296889;28;20478;-56
2021/06/12 16:13:41;;;;;;;66.55;54.67;;;;;;;;;;10307676;28;20060;-58
2021/06/12 16:18:40;;;;;;;22.63;12.57;;;;;;;;;;10287819;28;20510;-55
2021/06/12 16:23:39;;;;;;;23.30;6.72;;;;;;;;;;10286508;28;20513;-57
2021/06/12 16:28:38;;;;;;;8.60;5.05;;;;;;;;;;10299450;28;20076;-57
2021/06/12 16:33:36;;;;;;;10.32;4.57;;;;;;;;;;10297654;28;20518;-56
2021/06/12 16:38:33;;;;;;;6.03;4.40;;;;;;;;;;10300234;28;20068;-58
2021/06/12 16:43:34;;;;;;;9.25;5.80;;;;;;;;;;10315637;28;20076;-57
2021/06/12 16:48:33;;;;;;;4.88;4.30;;;;;;;;;;10294986;28;20080;-59
2021/06/12 16:53:31;;;;;;;5.32;4.28;;;;;;;;;;10294018;28;20061;-58
2021/06/12 17:03:55;;;;;;;7.43;4.37;;;;;;;;;;10287363;28;20085;-56
2021/06/12 17:08:54;;;;;;;5.50;3.42;;;;;;;;;;10290071;28;20338;-52
2021/06/12 17:13:53;;;;;;;3.83;3.25;;;;;;;;;;10310971;28;20548;-58
2021/06/12 17:18:51;;;;;;;4.80;4.30;;;;;;;;;;10312001;28;20091;-56
2021/06/12 17:23:50;;;;;;;5.97;4.97;;;;;;;;;;10300055;28;20079;-53
2021/06/12 17:28:48;;;;;;;5.18;4.28;;;;;;;;;;10278814;28;20080;-58
2021/06/12 17:33:46;;;;;;;3.92;2.80;;;;;;;;;;10287508;28;20076;-56
2021/06/12 17:38:44;;;;;;;3.88;3.28;;;;;;;;;;10272694;28;20064;-57
2021/06/12 17:43:43;;;;;;;5.72;2.97;;;;;;;;;;10288614;28;20079;-56
2021/06/12 17:48:41;;;;;;;4.07;3.67;;;;;;;;;;10289122;28;20069;-57
2021/06/12 17:53:39;;;;;;;6.85;5.85;;;;;;;;;;10270154;28;20068;-59
2021/06/12 17:58:37;;;;;;;5.72;2.70;;;;;;;;;;10284259;28;20072;-58
2021/06/12 18:03:37;;;;;;;4.40;3.10;;;;;;;;;;10306569;28;20067;-54
2021/06/12 18:08:35;;;;;;;3.60;2.70;;;;;;;;;;10316743;28;20068;-57
2021/06/12 18:13:33;;;;;;;4.53;2.67;;;;;;;;;;10305012;28;20182;-57
2021/06/12 18:18:30;;;;;;;2.97;2.75;;;;;;;;;;10315571;28;20087;-55
2021/06/12 18:23:30;;;;;;;3.20;2.90;;;;;;;;;;10310915;28;20061;-56
2021/06/12 18:28:28;;;;;;;3.20;2.90;;;;;;;;;;10294706;28;20076;-56
2021/06/12 18:33:26;;;;;;;2.92;2.63;;;;;;;;;;10290213;28;20126;-54
2021/06/12 18:38:24;;;;;;;2.78;2.58;;;;;;;;;;10286096;28;20075;-56
2021/06/12 18:43:23;;;;;;;4.32;2.30;;;;;;;;;;10286454;28;20498;-56
2021/06/12 18:48:22;;;;;;;4.35;2.90;;;;;;;;;;10284959;28;20064;-56
2021/06/12 18:53:20;;;;;;;9.98;3.00;;;;;;;;;;10280324;28;20135;-57
2021/06/12 18:58:20;;;;;;;3.00;2.33;;;;;;;;;;10281391;28;20114;-55
2021/06/12 19:03:20;;;;;;;2.65;2.45;;;;;;;;;;10273751;28;20091;-55
2021/06/12 19:08:18;;;;;;;3.67;2.55;;;;;;;;;;10285771;28;20088;-55
2021/06/12 19:13:16;;;;;;;2.65;2.42;;;;;;;;;;10283996;28;20525;-57
2021/06/12 19:18:14;;;;;;;5.80;2.55;;;;;;;;;;10278138;28;20487;-57
2021/06/12 19:23:14;;;;;;;4.35;2.35;;;;;;;;;;10286042;28;20489;-55
2021/06/12 19:28:14;;;;;;;5.88;2.10;;;;;;;;;;10262222;22;20156;-58
2021/06/12 19:33:13;;;;;;;2.90;2.25;;;;;;;;;;10178526;22;176888;-55
2021/06/12 19:38:29;;;;;;;12.02;2.47;;;;;;;;;;10156514;28;20085;-57
2021/06/12 19:43:28;;;;;;;2.88;2.53;;;;;;;;;;10177474;28;20493;-56
2021/06/12 19:48:26;;;;;;;2.88;2.50;;;;;;;;;;10197860;22;20078;-61
2021/06/12 19:53:37;;;;;;;4.78;3.38;;;;;;;;;;10179900;28;20081;-61
2021/06/12 19:58:36;;;;;;;6.65;2.35;;;;;;;;;;10174243;28;20077;-61
2021/06/12 20:03:34;;;;;;;3.03;2.47;;;;;;;;;;10175729;28;20061;-61
2021/06/12 20:08:33;;;;;;;12.00;2.75;;;;;;;;;;10185506;28;20069;-61
2021/06/12 20:13:31;;;;;;;5.30;2.90;;;;;;;;;;10187322;28;20080;-61
2021/06/12 20:18:30;;;;;;;3.67;2.72;;;;;;;;;;10184752;28;20057;-61
2021/06/12 20:23:29;;;;;;;4.30;3.22;;;;;;;;;;10185712;28;20073;-61
2021/06/12 20:28:29;;;;;;;3.95;2.97;;;;;;;;;;10184626;28;20077;-62
2021/06/12 20:33:31;;;;;;;;;;;;;;;;;;10180407;28;21208;-60
2021/06/12 20:38:29;;;;;;;3.25;2.97;;;;;;;;;;10185177;28;19964;-61
2021/06/12 20:43:31;;;;;;;12.35;2.83;;;;;;;;;;10181670;28;20078;-61
2021/06/12 20:48:36;;;;;;;8.90;3.58;;;;;;;;;;10179039;28;20078;-60
2021/06/12 20:53:36;;;;;;;8.85;4.40;;;;;;;;;;10184439;28;20073;-61
2021/06/12 20:58:36;;;;;;;4.88;3.75;;;;;;;;;;10181999;28;20053;-61
2021/06/12 21:03:34;;;;;;;9.38;4.18;;;;;;;;;;10171726;28;20497;-61
2021/06/12 21:08:31;;;;;;;3.75;3.45;;;;;;;;;;10185143;28;20490;-61
2021/06/12 21:13:29;;;;;;;8.35;3.13;;;;;;;;;;10184126;28;20080;-61
2021/06/12 21:18:28;;;;;;;5.68;3.10;;;;;;;;;;10181649;28;20482;-61
2021/06/12 21:23:26;;;;;;;4.20;3.47;;;;;;;;;;10181270;28;20073;-61
2021/06/12 21:28:24;;;;;;;5.13;3.85;;;;;;;;;;10183488;28;20066;-60
2021/06/12 21:33:23;;;;;;;6.20;3.97;;;;;;;;;;10183769;28;20072;-61
2021/06/12 21:38:23;;;;;;;5.50;3.05;;;;;;;;;;10181986;28;20077;-60
2021/06/12 21:43:21;;;;;;;6.88;3.83;;;;;;;;;;10175165;28;20516;-61
2021/06/12 21:48:18;;;;;;;7.35;3.85;;;;;;;;;;10183674;28;20082;-61
2021/06/12 21:53:16;;;;;;;4.45;3.50;;;;;;;;;;10179033;28;20082;-60
2021/06/12 21:58:15;;;;;;;8.68;3.92;;;;;;;;;;10182303;28;20077;-62
2021/06/12 22:03:13;;;;;;;8.20;3.85;;;;;;;;;;10180083;28;20070;-62
2021/06/12 22:08:11;;;;;;;5.10;3.80;;;;;;;;;;10182417;28;20085;-61
2021/06/12 22:13:09;;;;;;;10.75;4.00;;;;;;;;;;10181296;28;20069;-62
2021/06/12 22:18:09;;;;;;;4.50;4.03;;;;;;;;;;10181347;28;20499;-61
2021/06/12 22:23:06;;;;;;;12.10;5.00;;;;;;;;;;10179091;28;20069;-61
2021/06/12 22:28:04;;;;;;;4.55;4.10;;;;;;;;;;10192458;28;20069;-61
2021/06/12 22:33:02;;;;;;;6.68;4.40;;;;;;;;;;10190144;28;20066;-62
2021/06/12 22:38:02;;;;;;;6.72;4.20;;;;;;;;;;10188362;28;20072;-62
2021/06/12 22:43:00;;;;;;;6.10;5.00;;;;;;;;;;10181347;28;20060;-61
2021/06/12 22:47:57;;;;;;;9.00;4.68;;;;;;;;;;10184821;28;20107;-62
2021/06/12 22:52:55;;;;;;;5.00;4.50;;;;;;;;;;10192037;28;20084;-63
2021/06/12 22:57:56;;;;;;;5.32;4.80;;;;;;;;;;10194693;28;20046;-62
2021/06/12 23:02:54;;;;;;;8.93;4.93;;;;;;;;;;10194750;28;20081;-63
2021/06/12 23:07:52;;;;;;;6.20;4.63;;;;;;;;;;10191268;28;20495;-62
2021/06/12 23:12:51;;;;;;;8.88;5.40;;;;;;;;;;10186269;28;20519;-62
2021/06/12 23:17:50;;;;;;;6.30;4.95;;;;;;;;;;10186922;28;20076;-63
2021/06/12 23:22:48;;;;;;;11.07;5.10;;;;;;;;;;10185054;28;20093;-62
2021/06/12 23:27:46;;;;;;;8.38;5.65;;;;;;;;;;10183283;28;20081;-63
2021/06/12 23:32:43;;;;;;;8.40;5.38;;;;;;;;;;10189458;28;20474;-62
2021/06/12 23:37:43;;;;;;;6.07;5.50;;;;;;;;;;10178948;28;20089;-63
2021/06/12 23:42:41;;;;;;;6.63;5.97;;;;;;;;;;10192982;28;20066;-63
2021/06/12 23:47:41;;;;;;;6.68;5.90;;;;;;;;;;10193601;28;20490;-62
2021/06/12 23:52:39;;;;;;;6.80;5.45;;;;;;;;;;10193799;28;20042;-62
2021/06/12 23:57:38;;;;;;;11.93;5.85;;;;;;;;;;10192150;28;20100;-62
